Time,TemperatureF,DewpointF,PressureIn,WindDirection,WindDirectionDegrees,WindSpeedMPH,WindSpeedGustMPH,Humidity,HourlyPrecipIn,Conditions,Clouds,dailyrainin,SoftwareType,DateUTC
2013-06-05 00:06:00,51.6,41.0,30.10,NNE,32,0.0,5.0,67,0.00,,,0.00,weatherlink.com 1.10,2013-06-05 04:06:00,
2013-06-05 00:21:00,51.4,40.0,30.11,North,354,0.0,2.0,66,0.00,,,0.00,weatherlink.com 1.10,2013-06-05 04:21:00,
2013-06-05 00:36:00,51.6,42.0,30.11,North,9,0.0,1.0,69,0.00,,,0.00,weatherlink.com 1.10,2013-06-05 04:36:00,
2013-06-05 00:51:00,51.3,41.0,30.11,North,8,0.0,0.0,68,0.00,,,0.00,weatherlink.com 1.10,2013-06-05 04:51:00,
2013-06-05 01:07:00,50.7,42.0,30.11,North,8,0.0,0.0,71,0.00,,,0.00,weatherlink.com 1.10,2013-06-05 05:07:00,
2013-06-05 01:22:00,50.4,43.0,30.11,North,8,0.0,0.0,76,0.00,,,0.00,weatherlink.com 1.10,2013-06-05 05:22:00,
2013-06-05 01:37:00,49.9,43.0,30.11,North,9,0.0,1.0,76,0.00,,,0.00,weatherlink.com 1.10,2013-06-05 05:37:00,
2013-06-05 01:52:00,49.6,42.0,30.11,North,9,0.0,0.0,76,0.00,,,0.00,weatherlink.com 1.10,2013-06-05 05:52:00,
2013-06-05 02:07:00,49.1,43.0,30.11,North,8,0.0,0.0,78,0.00,,,0.00,weatherlink.com 1.10,2013-06-05 06:07:00,
2013-06-05 02:22:00,48.5,43.0,30.11,North,9,0.0,0.0,81,0.00,,,0.00,weatherlink.com 1.10,2013-06-05 06:22:00,
2013-06-05 02:37:00,47.3,42.0,30.11,North,8,0.0,0.0,81,0.00,,,0.00,weatherlink.com 1.10,2013-06-05 06:37:00,
2013-06-05 02:52:00,46.2,42.0,30.12,North,9,0.0,0.0,84,0.00,,,0.00,weatherlink.com 1.10,2013-06-05 06:52:00,
2013-06-05 03:07:00,45.4,42.0,30.12,North,9,0.0,0.0,86,0.00,,,0.00,weatherlink.com 1.10,2013-06-05 07:07:00,
2013-06-05 03:22:00,45.1,42.0,30.13,ENE,72,0.0,1.0,88,0.00,,,0.00,weatherlink.com 1.10,2013-06-05 07:22:00,
2013-06-05 03:37:00,44.9,41.0,30.13,ENE,70,0.0,1.0,87,0.00,,,0.00,weatherlink.com 1.10,2013-06-05 07:37:00,
2013-06-05 03:52:00,44.9,42.0,30.13,ENE,70,0.0,0.0,88,0.00,,,0.00,weatherlink.com 1.10,2013-06-05 07:52:00,
2013-06-05 04:07:00,44.7,41.0,30.14,ENE,71,0.0,0.0,88,0.00,,,0.00,weatherlink.com 1.10,2013-06-05 08:07:00,
2013-06-05 04:22:00,44.7,41.0,30.14,ENE,71,0.0,1.0,88,0.00,,,0.00,weatherlink.com 1.10,2013-06-05 08:22:00,
2013-06-05 04:37:00,44.4,41.0,30.15,ENE,70,0.0,0.0,89,0.00,,,0.00,weatherlink.com 1.10,2013-06-05 08:37:00,
2013-06-05 04:52:00,44.3,41.0,30.15,ENE,71,0.0,0.0,89,0.00,,,0.00,weatherlink.com 1.10,2013-06-05 08:52:00,
2013-06-05 05:07:00,44.2,42.0,30.15,ENE,70,0.0,0.0,90,0.00,,,0.00,weatherlink.com 1.10,2013-06-05 09:07:00,
2013-06-05 05:22:00,43.6,41.0,30.16,ENE,71,0.0,0.0,91,0.00,,,0.00,weatherlink.com 1.10,2013-06-05 09:22:00,
2013-06-05 05:37:00,42.8,41.0,30.16,ENE,70,0.0,0.0,92,0.00,,,0.00,weatherlink.com 1.10,2013-06-05 09:37:00,
2013-06-05 05:52:00,42.6,41.0,30.16,ENE,71,0.0,0.0,92,0.00,,,0.00,weatherlink.com 1.10,2013-06-05 09:52:00,
2013-06-05 06:07:00,42.7,41.0,30.17,ENE,70,0.0,0.0,93,0.00,,,0.00,weatherlink.com 1.10,2013-06-05 10:07:00,
2013-06-05 06:22:00,42.9,41.0,30.17,ENE,71,0.0,0.0,93,0.00,,,0.00,weatherlink.com 1.10,2013-06-05 10:22:00,
2013-06-05 06:37:00,43.4,42.0,30.17,ENE,71,0.0,0.0,93,0.00,,,0.00,weatherlink.com 1.10,2013-06-05 10:37:00,
2013-06-05 06:52:00,43.8,42.0,30.18,ENE,71,0.0,1.0,93,0.00,,,0.00,weatherlink.com 1.10,2013-06-05 10:52:00,
2013-06-05 07:07:00,44.7,43.0,30.18,ENE,70,0.0,1.0,93,0.00,,,0.00,weatherlink.com 1.10,2013-06-05 11:07:00,
2013-06-05 07:22:00,45.6,44.0,30.18,ENE,71,0.0,0.0,93,0.00,,,0.00,weatherlink.com 1.10,2013-06-05 11:22:00,
2013-06-05 07:37:00,46.8,44.0,30.18,ENE,70,0.0,0.0,90,0.00,,,0.00,weatherlink.com 1.10,2013-06-05 11:37:00,
2013-06-05 07:53:00,47.8,45.0,30.18,ENE,70,0.0,1.0,89,0.00,,,0.00,weatherlink.com 1.10,2013-06-05 11:53:00,
2013-06-05 08:08:00,49.0,45.0,30.19,ESE,120,0.0,1.0,86,0.00,,,0.00,weatherlink.com 1.10,2013-06-05 12:08:00,
2013-06-05 08:23:00,49.7,43.0,30.19,North,11,0.0,1.0,79,0.00,,,0.00,weatherlink.com 1.10,2013-06-05 12:23:00,
2013-06-05 08:38:00,50.5,42.0,30.19,NNE,14,1.0,2.0,72,0.00,,,0.00,weatherlink.com 1.10,2013-06-05 12:38:00,
2013-06-05 08:53:00,51.4,40.0,30.20,WNW,289,0.0,2.0,65,0.00,,,0.00,weatherlink.com 1.10,2013-06-05 12:53:00,
2013-06-05 09:08:00,52.0,40.0,30.20,WNW,287,0.0,4.0,64,0.00,,,0.00,weatherlink.com 1.10,2013-06-05 13:08:00,
2013-06-05 09:23:00,52.6,40.0,30.20,NE,48,0.0,1.0,63,0.00,,,0.00,weatherlink.com 1.10,2013-06-05 13:23:00,
2013-06-05 09:38:00,53.0,40.0,30.20,ESE,118,1.0,2.0,61,0.00,,,0.00,weatherlink.com 1.10,2013-06-05 13:38:00,
2013-06-05 09:53:00,53.7,40.0,30.20,NNE,28,3.0,5.0,61,0.00,,,0.00,weatherlink.com 1.10,2013-06-05 13:53:00,
2013-06-05 10:08:00,54.8,42.0,30.20,North,3,0.0,1.0,62,0.00,,,0.00,weatherlink.com 1.10,2013-06-05 14:08:00,
2013-06-05 10:23:00,55.9,42.0,30.20,West,271,2.0,4.0,60,0.00,,,0.00,weatherlink.com 1.10,2013-06-05 14:23:00,
2013-06-05 10:38:00,56.1,37.0,30.20,North,359,3.0,7.0,50,0.00,,,0.00,weatherlink.com 1.10,2013-06-05 14:38:00,
2013-06-05 10:53:00,57.8,42.0,30.20,WSW,252,0.0,2.0,57,0.00,,,0.00,weatherlink.com 1.10,2013-06-05 14:53:00,
2013-06-05 11:08:00,58.9,43.0,30.19,WNW,293,2.0,4.0,55,0.00,,,0.00,weatherlink.com 1.10,2013-06-05 15:08:00,
2013-06-05 11:23:00,58.4,40.0,30.19,WNW,285,1.0,4.0,51,0.00,,,0.00,weatherlink.com 1.10,2013-06-05 15:23:00,
2013-06-05 11:38:00,57.9,37.0,30.19,WNW,296,1.0,4.0,46,0.00,,,0.00,weatherlink.com 1.10,2013-06-05 15:38:00,
2013-06-05 11:53:00,58.7,38.0,30.19,NNE,32,0.0,4.0,47,0.00,,,0.00,weatherlink.com 1.10,2013-06-05 15:53:00,
2013-06-05 12:08:00,59.9,41.0,30.18,WNW,290,1.0,5.0,50,0.00,,,0.00,weatherlink.com 1.10,2013-06-05 16:08:00,
2013-06-05 12:23:00,59.4,40.0,30.18,North,349,0.0,4.0,49,0.00,,,0.00,weatherlink.com 1.10,2013-06-05 16:23:00,
2013-06-05 12:38:00,59.7,38.0,30.19,NNE,18,1.0,4.0,45,0.00,,,0.00,weatherlink.com 1.10,2013-06-05 16:38:00,
2013-06-05 12:53:00,60.7,38.0,30.19,West,281,1.0,4.0,44,0.00,,,0.00,weatherlink.com 1.10,2013-06-05 16:53:00,
2013-06-05 13:08:00,60.1,37.0,30.18,West,277,0.0,5.0,43,0.00,,,0.00,weatherlink.com 1.10,2013-06-05 17:08:00,
2013-06-05 13:23:00,61.4,35.0,30.17,NNE,24,3.0,5.0,37,0.00,,,0.00,weatherlink.com 1.10,2013-06-05 17:23:00,
2013-06-05 13:38:00,61.8,38.0,30.18,WNW,302,3.0,3.0,41,0.00,,,0.00,weatherlink.com 1.10,2013-06-05 17:38:00,
2013-06-05 13:53:00,60.6,37.0,30.17,West,260,1.0,7.0,42,0.00,,,0.00,weatherlink.com 1.10,2013-06-05 17:53:00,
2013-06-05 14:08:00,61.6,36.0,30.16,NW,310,1.0,5.0,38,0.00,,,0.00,weatherlink.com 1.10,2013-06-05 18:08:00,
2013-06-05 14:23:00,61.8,36.0,30.17,West,280,1.0,4.0,39,0.00,,,0.00,weatherlink.com 1.10,2013-06-05 18:23:00,
2013-06-05 14:38:00,62.4,30.0,30.16,WNW,285,1.0,4.0,30,0.00,,,0.00,weatherlink.com 1.10,2013-06-05 18:38:00,
2013-06-05 14:53:00,62.2,24.0,30.16,WNW,293,1.0,5.0,23,0.00,,,0.00,weatherlink.com 1.10,2013-06-05 18:53:00,
2013-06-05 15:09:00,63.0,35.0,30.14,WNW,301,1.0,6.0,35,0.00,,,0.00,weatherlink.com 1.10,2013-06-05 19:09:00,
2013-06-05 15:23:00,63.7,36.0,30.13,SSW,211,0.0,5.0,36,0.00,,,0.00,weatherlink.com 1.10,2013-06-05 19:23:00,
2013-06-05 15:39:00,62.0,35.0,30.14,NW,323,1.0,6.0,37,0.00,,,0.00,weatherlink.com 1.10,2013-06-05 19:39:00,
2013-06-05 15:54:00,61.3,40.0,30.13,WNW,293,0.0,3.0,45,0.00,,,0.00,weatherlink.com 1.10,2013-06-05 19:54:00,
2013-06-05 16:09:00,60.9,42.0,30.12,WNW,283,0.0,4.0,50,0.00,,,0.00,weatherlink.com 1.10,2013-06-05 20:09:00,
2013-06-05 16:24:00,60.8,41.0,30.12,West,267,0.0,0.0,49,0.00,,,0.00,weatherlink.com 1.10,2013-06-05 20:24:00,
2013-06-05 16:39:00,60.4,39.0,30.11,WNW,295,2.0,3.0,46,0.00,,,0.00,weatherlink.com 1.10,2013-06-05 20:39:00,
2013-06-05 16:54:00,59.8,43.0,30.12,NW,325,0.0,2.0,55,0.00,,,0.00,weatherlink.com 1.10,2013-06-05 20:54:00,
2013-06-05 17:09:00,59.8,43.0,30.12,NNW,330,0.0,1.0,54,0.00,,,0.00,weatherlink.com 1.10,2013-06-05 21:09:00,
2013-06-05 17:24:00,60.6,44.0,30.11,WNW,295,0.0,2.0,55,0.00,,,0.00,weatherlink.com 1.10,2013-06-05 21:24:00,
2013-06-05 17:39:00,60.1,44.0,30.12,WNW,288,0.0,2.0,56,0.00,,,0.00,weatherlink.com 1.10,2013-06-05 21:39:00,
2013-06-05 17:54:00,59.9,41.0,30.12,NNW,342,0.0,3.0,50,0.00,,,0.00,weatherlink.com 1.10,2013-06-05 21:54:00,
2013-06-05 18:09:00,59.4,42.0,30.13,NW,310,0.0,1.0,53,0.00,,,0.00,weatherlink.com 1.10,2013-06-05 22:09:00,
2013-06-05 18:24:00,58.9,46.0,30.14,NNW,338,0.0,1.0,63,0.00,,,0.00,weatherlink.com 1.10,2013-06-05 22:24:00,
2013-06-05 18:39:00,58.7,43.0,30.14,NNW,336,0.0,1.0,57,0.00,,,0.00,weatherlink.com 1.10,2013-06-05 22:39:00,
2013-06-05 18:54:00,58.2,42.0,30.14,North,359,0.0,1.0,56,0.00,,,0.00,weatherlink.com 1.10,2013-06-05 22:54:00,
2013-06-05 19:09:00,58.0,43.0,30.14,NW,325,0.0,2.0,57,0.00,,,0.00,weatherlink.com 1.10,2013-06-05 23:09:00,
2013-06-05 19:24:00,57.4,46.0,30.13,NNW,338,0.0,1.0,66,0.00,,,0.00,weatherlink.com 1.10,2013-06-05 23:24:00,
2013-06-05 19:39:00,56.9,42.0,30.12,WNW,295,0.0,3.0,59,0.00,,,0.00,weatherlink.com 1.10,2013-06-05 23:39:00,
2013-06-05 19:54:00,55.7,44.0,30.13,NNW,340,0.0,1.0,64,0.00,,,0.00,weatherlink.com 1.10,2013-06-05 23:54:00,
2013-06-05 20:09:00,54.5,40.0,30.13,NNW,339,0.0,1.0,58,0.00,,,0.00,weatherlink.com 1.10,2013-06-06 00:09:00,
2013-06-05 20:24:00,54.1,41.0,30.13,NW,319,0.0,2.0,61,0.00,,,0.00,weatherlink.com 1.10,2013-06-06 00:24:00,
2013-06-05 20:39:00,53.7,41.0,30.14,WNW,297,0.0,1.0,62,0.00,,,0.00,weatherlink.com 1.10,2013-06-06 00:39:00,
2013-06-05 20:54:00,53.4,41.0,30.14,WNW,298,0.0,1.0,63,0.00,,,0.00,weatherlink.com 1.10,2013-06-06 00:54:00,
2013-06-05 21:09:00,53.0,41.0,30.15,NNW,336,0.0,1.0,65,0.00,,,0.00,weatherlink.com 1.10,2013-06-06 01:09:00,
2013-06-05 21:24:00,52.8,40.0,30.15,NW,314,0.0,1.0,63,0.00,,,0.00,weatherlink.com 1.10,2013-06-06 01:24:00,
2013-06-05 21:39:00,52.7,39.0,30.15,NW,308,0.0,1.0,60,0.00,,,0.00,weatherlink.com 1.10,2013-06-06 01:39:00,
2013-06-05 21:54:00,52.6,39.0,30.16,NNW,336,0.0,1.0,61,0.00,,,0.00,weatherlink.com 1.10,2013-06-06 01:54:00,
2013-06-05 22:09:00,52.7,39.0,30.16,North,11,0.0,1.0,60,0.00,,,0.00,weatherlink.com 1.10,2013-06-06 02:09:00,
2013-06-05 22:24:00,52.5,39.0,30.16,North,11,0.0,1.0,61,0.00,,,0.00,weatherlink.com 1.10,2013-06-06 02:24:00,
2013-06-05 22:39:00,52.4,40.0,30.15,North,349,0.0,1.0,62,0.00,,,0.00,weatherlink.com 1.10,2013-06-06 02:39:00,
2013-06-05 22:54:00,52.4,40.0,30.15,East,79,0.0,2.0,62,0.00,,,0.00,weatherlink.com 1.10,2013-06-06 02:54:00,
2013-06-05 23:09:00,52.4,40.0,30.16,WNW,284,0.0,1.0,62,0.00,,,0.00,weatherlink.com 1.10,2013-06-06 03:09:00,
2013-06-05 23:25:00,52.5,39.0,30.15,NNE,17,0.0,1.0,61,0.00,,,0.00,weatherlink.com 1.10,2013-06-06 03:25:00,
2013-06-05 23:39:00,52.4,40.0,30.15,NNE,17,0.0,0.0,63,0.00,,,0.00,weatherlink.com 1.10,2013-06-06 03:39:00,
2013-06-05 23:54:00,52.3,41.0,30.14,NNE,18,0.0,1.0,65,0.00,,,0.00,weatherlink.com 1.10,2013-06-06 03:54:00,